sensor_id;sensor_type;location;lat;lon;timestamp;pressure;altitude;pressure_sealevel;temperature;humidity
12536;BME280;6334;48.696;2.114;2023-03-14T00:00:21;97821.34;;;10.10;81.89
12536;BME280;6334;48.696;2.114;2023-03-14T00:02:52;97823.86;;;10.09;81.92
12536;BME280;6334;48.696;2.114;2023-03-14T00:05:22;97807.75;;;10.20;81.57
12536;BME280;6334;48.696;2.114;2023-03-14T00:07:52;97819.52;;;9.97;82.56
12536;BME280;6334;48.696;2.114;2023-03-14T00:10:24;97815.14;;;10.03;82.74
12536;BME280;6334;48.696;2.114;2023-03-14T00:12:55;97810.01;;;10.12;81.98
12536;BME280;6334;48.696;2.114;2023-03-14T00:15:25;97810.80;;;10.11;82.13
12536;BME280;6334;48.696;2.114;2023-03-14T00:17:55;97806.84;;;9.87;83.05
12536;BME280;6334;48.696;2.114;2023-03-14T00:20:26;97806.72;;;9.92;83.37
12536;BME280;6334;48.696;2.114;2023-03-14T00:22:56;97802.20;;;9.76;83.78
12536;BME280;6334;48.696;2.114;2023-03-14T00:25:27;97804.42;;;9.88;83.56
12536;BME280;6334;48.696;2.114;2023-03-14T00:27:57;97796.50;;;10.01;82.77
12536;BME280;6334;48.696;2.114;2023-03-14T00:30:28;97798.48;;;10.12;82.86
12536;BME280;6334;48.696;2.114;2023-03-14T00:32:58;97798.75;;;9.80;83.54
12536;BME280;6334;48.696;2.114;2023-03-14T00:35:29;97793.27;;;9.75;84.29
12536;BME280;6334;48.696;2.114;2023-03-14T00:37:59;97791.67;;;9.96;83.25
12536;BME280;6334;48.696;2.114;2023-03-14T00:40:30;97794.64;;;9.85;83.68
12536;BME280;6334;48.696;2.114;2023-03-14T00:43:00;97799.83;;;9.88;83.90
12536;BME280;6334;48.696;2.114;2023-03-14T00:45:30;97768.80;;;9.82;83.65
12536;BME280;6334;48.696;2.114;2023-03-14T00:48:01;97787.06;;;9.84;84.24
12536;BME280;6334;48.696;2.114;2023-03-14T00:50:31;97783.52;;;9.72;84.12
12536;BME280;6334;48.696;2.114;2023-03-14T00:53:02;97776.41;;;9.68;84.18
12536;BME280;6334;48.696;2.114;2023-03-14T00:55:35;97784.20;;;9.97;83.61
12536;BME280;6334;48.696;2.114;2023-03-14T00:58:03;97783.86;;;9.94;83.25
12536;BME280;6334;48.696;2.114;2023-03-14T01:00:33;97794.01;;;10.01;83.00
12536;BME280;6334;48.696;2.114;2023-03-14T01:03:04;97788.00;;;10.09;82.74
12536;BME280;6334;48.696;2.114;2023-03-14T01:05:34;97779.59;;;10.11;82.30
12536;BME280;6334;48.696;2.114;2023-03-14T01:08:06;97778.47;;;9.86;83.42
12536;BME280;6334;48.696;2.114;2023-03-14T01:10:40;97775.21;;;10.12;82.20
12536;BME280;6334;48.696;2.114;2023-03-14T01:13:10;97771.06;;;10.12;82.14
12536;BME280;6334;48.696;2.114;2023-03-14T01:15:40;97768.24;;;9.88;83.44
12536;BME280;6334;48.696;2.114;2023-03-14T01:18:11;97776.33;;;10.00;83.21
12536;BME280;6334;48.696;2.114;2023-03-14T01:20:41;97774.73;;;10.01;83.16
12536;BME280;6334;48.696;2.114;2023-03-14T01:23:12;97778.70;;;9.85;83.94
12536;BME280;6334;48.696;2.114;2023-03-14T01:25:42;97776.34;;;10.04;82.79
12536;BME280;6334;48.696;2.114;2023-03-14T01:28:13;97778.89;;;9.99;83.32
12536;BME280;6334;48.696;2.114;2023-03-14T01:30:43;97771.70;;;9.92;83.90
12536;BME280;6334;48.696;2.114;2023-03-14T01:33:13;97770.93;;;9.86;83.92
12536;BME280;6334;48.696;2.114;2023-03-14T01:35:44;97756.72;;;9.93;83.93
12536;BME280;6334;48.696;2.114;2023-03-14T01:38:14;97750.73;;;9.90;83.81
12536;BME280;6334;48.696;2.114;2023-03-14T01:40:45;97764.38;;;10.04;83.34
12536;BME280;6334;48.696;2.114;2023-03-14T01:43:16;97760.70;;;9.92;83.98
12536;BME280;6334;48.696;2.114;2023-03-14T01:48:37;97765.34;;;10.05;83.97
12536;BME280;6334;48.696;2.114;2023-03-14T01:51:11;97769.39;;;9.98;84.49
12536;BME280;6334;48.696;2.114;2023-03-14T01:53:41;97760.78;;;10.06;84.01
12536;BME280;6334;48.696;2.114;2023-03-14T01:56:11;97766.70;;;10.06;84.26
12536;BME280;6334;48.696;2.114;2023-03-14T01:58:42;97771.55;;;10.10;83.81
12536;BME280;6334;48.696;2.114;2023-03-14T02:01:13;97770.09;;;10.06;84.05
12536;BME280;6334;48.696;2.114;2023-03-14T02:03:47;97777.81;;;10.15;83.78
12536;BME280;6334;48.696;2.114;2023-03-14T02:06:17;97757.89;;;10.00;84.35
12536;BME280;6334;48.696;2.114;2023-03-14T02:08:47;97777.19;;;9.91;85.02
12536;BME280;6334;48.696;2.114;2023-03-14T02:11:17;97781.54;;;9.94;85.20
12536;BME280;6334;48.696;2.114;2023-03-14T02:13:48;97787.58;;;10.21;83.61
12536;BME280;6334;48.696;2.114;2023-03-14T02:16:18;97789.40;;;9.85;85.75
12536;BME280;6334;48.696;2.114;2023-03-14T02:18:49;97782.50;;;9.75;86.03
12536;BME280;6334;48.696;2.114;2023-03-14T02:21:30;97784.80;;;9.82;85.71
12536;BME280;6334;48.696;2.114;2023-03-14T02:24:25;97793.69;;;9.90;85.42
12536;BME280;6334;48.696;2.114;2023-03-14T02:27:29;97784.21;;;9.82;85.59
12536;BME280;6334;48.696;2.114;2023-03-14T02:29:14;97780.75;;;9.98;85.20
12536;BME280;6334;48.696;2.114;2023-03-14T02:31:45;97786.80;;;10.06;85.08
12536;BME280;6334;48.696;2.114;2023-03-14T02:34:15;97780.45;;;9.99;85.52
12536;BME280;6334;48.696;2.114;2023-03-14T02:36:46;97768.14;;;9.91;85.40
12536;BME280;6334;48.696;2.114;2023-03-14T02:39:35;97782.13;;;10.07;85.46
12536;BME280;6334;48.696;2.114;2023-03-14T02:41:50;97775.44;;;10.02;85.21
12536;BME280;6334;48.696;2.114;2023-03-14T02:44:20;97783.78;;;10.11;85.13
12536;BME280;6334;48.696;2.114;2023-03-14T02:46:51;97778.30;;;10.12;85.20
12536;BME280;6334;48.696;2.114;2023-03-14T02:49:21;97783.17;;;10.00;85.94
12536;BME280;6334;48.696;2.114;2023-03-14T02:51:51;97781.08;;;10.00;85.51
12536;BME280;6334;48.696;2.114;2023-03-14T02:54:22;97781.25;;;10.02;85.59
12536;BME280;6334;48.696;2.114;2023-03-14T02:56:52;97773.88;;;10.09;85.51
12536;BME280;6334;48.696;2.114;2023-03-14T02:59:24;97775.94;;;10.00;85.56
12536;BME280;6334;48.696;2.114;2023-03-14T03:01:54;97771.82;;;10.10;85.59
12536;BME280;6334;48.696;2.114;2023-03-14T03:04:26;97764.34;;;10.10;85.37
12536;BME280;6334;48.696;2.114;2023-03-14T03:06:57;97773.02;;;10.07;85.58
12536;BME280;6334;48.696;2.114;2023-03-14T03:09:27;97780.16;;;10.06;86.07
12536;BME280;6334;48.696;2.114;2023-03-14T03:11:58;97773.77;;;9.96;86.06
12536;BME280;6334;48.696;2.114;2023-03-14T03:14:28;97784.67;;;10.07;85.93
12536;BME280;6334;48.696;2.114;2023-03-14T03:16:58;97784.45;;;10.05;86.10
12536;BME280;6334;48.696;2.114;2023-03-14T03:19:29;97788.10;;;10.07;86.09
12536;BME280;6334;48.696;2.114;2023-03-14T03:21:59;97791.37;;;10.17;86.07
12536;BME280;6334;48.696;2.114;2023-03-14T03:24:30;97793.03;;;10.18;85.50
12536;BME280;6334;48.696;2.114;2023-03-14T03:27:00;97781.08;;;9.99;86.21
12536;BME280;6334;48.696;2.114;2023-03-14T03:29:31;97793.22;;;10.05;86.59
12536;BME280;6334;48.696;2.114;2023-03-14T03:32:01;97795.25;;;10.12;86.21
12536;BME280;6334;48.696;2.114;2023-03-14T03:34:32;97802.06;;;10.07;86.29
12536;BME280;6334;48.696;2.114;2023-03-14T03:37:02;97797.30;;;10.05;86.20
12536;BME280;6334;48.696;2.114;2023-03-14T03:39:33;97813.00;;;10.09;86.29
12536;BME280;6334;48.696;2.114;2023-03-14T03:42:03;97810.80;;;10.12;86.28
12536;BME280;6334;48.696;2.114;2023-03-14T03:44:33;97816.75;;;10.09;86.13
12536;BME280;6334;48.696;2.114;2023-03-14T03:47:04;97814.05;;;10.06;86.39
12536;BME280;6334;48.696;2.114;2023-03-14T03:49:34;97818.19;;;10.13;85.89
12536;BME280;6334;48.696;2.114;2023-03-14T03:52:05;97821.05;;;10.15;85.86
12536;BME280;6334;48.696;2.114;2023-03-14T03:54:35;97818.49;;;10.20;85.84
12536;BME280;6334;48.696;2.114;2023-03-14T03:57:06;97824.42;;;10.34;85.09
12536;BME280;6334;48.696;2.114;2023-03-14T03:59:36;97820.53;;;10.30;85.67
12536;BME280;6334;48.696;2.114;2023-03-14T04:02:07;97815.98;;;10.07;86.32
12536;BME280;6334;48.696;2.114;2023-03-14T04:04:37;97829.23;;;10.31;85.71
12536;BME280;6334;48.696;2.114;2023-03-14T04:07:08;97831.73;;;10.55;84.53
12536;BME280;6334;48.696;2.114;2023-03-14T04:09:38;97831.13;;;10.21;85.97
12536;BME280;6334;48.696;2.114;2023-03-14T04:12:08;97837.84;;;10.27;86.11
12536;BME280;6334;48.696;2.114;2023-03-14T04:14:39;97836.09;;;10.29;85.71
12536;BME280;6334;48.696;2.114;2023-03-14T04:17:10;97839.72;;;10.14;86.46
12536;BME280;6334;48.696;2.114;2023-03-14T04:19:41;97839.72;;;10.10;86.89
12536;BME280;6334;48.696;2.114;2023-03-14T04:22:13;97850.65;;;10.31;85.91
12536;BME280;6334;48.696;2.114;2023-03-14T04:24:43;97853.86;;;10.24;86.34
12536;BME280;6334;48.696;2.114;2023-03-14T04:27:14;97860.44;;;10.16;86.64
12536;BME280;6334;48.696;2.114;2023-03-14T04:29:44;97864.39;;;10.45;85.53
12536;BME280;6334;48.696;2.114;2023-03-14T04:32:15;97862.05;;;10.16;86.50
12536;BME280;6334;48.696;2.114;2023-03-14T04:34:45;97868.81;;;10.07;86.67
12536;BME280;6334;48.696;2.114;2023-03-14T04:37:17;97873.57;;;10.22;86.09
12536;BME280;6334;48.696;2.114;2023-03-14T04:39:48;97882.06;;;10.15;86.18
12536;BME280;6334;48.696;2.114;2023-03-14T04:42:18;97888.17;;;10.28;86.14
12536;BME280;6334;48.696;2.114;2023-03-14T04:44:49;97897.36;;;10.17;86.83
12536;BME280;6334;48.696;2.114;2023-03-14T04:47:19;97934.03;;;10.24;86.36
12536;BME280;6334;48.696;2.114;2023-03-14T04:49:51;97966.84;;;9.96;85.21
12536;BME280;6334;48.696;2.114;2023-03-14T04:52:22;97983.16;;;10.33;84.21
12536;BME280;6334;48.696;2.114;2023-03-14T04:54:52;97989.84;;;9.66;79.90
12536;BME280;6334;48.696;2.114;2023-03-14T04:57:23;98030.12;;;9.43;79.93
12536;BME280;6334;48.696;2.114;2023-03-14T04:59:53;98032.86;;;9.74;77.29
12536;BME280;6334;48.696;2.114;2023-03-14T05:02:24;98048.14;;;9.47;76.50
12536;BME280;6334;48.696;2.114;2023-03-14T05:04:54;98038.65;;;9.26;78.69
12536;BME280;6334;48.696;2.114;2023-03-14T05:07:25;98056.78;;;9.28;75.54
12536;BME280;6334;48.696;2.114;2023-03-14T05:09:55;98075.27;;;9.32;76.47
12536;BME280;6334;48.696;2.114;2023-03-14T05:12:26;98079.34;;;9.34;76.16
12536;BME280;6334;48.696;2.114;2023-03-14T05:14:56;98091.24;;;9.18;75.91
12536;BME280;6334;48.696;2.114;2023-03-14T05:17:26;98096.05;;;8.94;75.72
12536;BME280;6334;48.696;2.114;2023-03-14T05:19:57;98107.11;;;9.08;74.56
12536;BME280;6334;48.696;2.114;2023-03-14T05:22:27;98110.16;;;8.95;73.76
12536;BME280;6334;48.696;2.114;2023-03-14T05:24:58;98137.02;;;8.95;73.96
12536;BME280;6334;48.696;2.114;2023-03-14T05:27:28;98128.00;;;9.04;74.01
12536;BME280;6334;48.696;2.114;2023-03-14T05:29:59;98134.69;;;8.91;74.88
12536;BME280;6334;48.696;2.114;2023-03-14T05:32:29;98167.16;;;8.88;71.49
12536;BME280;6334;48.696;2.114;2023-03-14T05:35:00;98168.45;;;8.72;71.63
12536;BME280;6334;48.696;2.114;2023-03-14T05:37:30;98174.41;;;8.81;72.79
12536;BME280;6334;48.696;2.114;2023-03-14T05:40:01;98176.54;;;8.66;69.95
12536;BME280;6334;48.696;2.114;2023-03-14T05:42:32;98181.09;;;8.64;72.64
12536;BME280;6334;48.696;2.114;2023-03-14T05:45:01;98186.25;;;8.65;72.80
12536;BME280;6334;48.696;2.114;2023-03-14T05:47:32;98208.23;;;8.58;71.00
12536;BME280;6334;48.696;2.114;2023-03-14T05:50:02;98227.48;;;8.69;71.14
12536;BME280;6334;48.696;2.114;2023-03-14T05:52:33;98235.42;;;8.77;70.02
12536;BME280;6334;48.696;2.114;2023-03-14T05:55:03;98247.44;;;8.55;72.86
12536;BME280;6334;48.696;2.114;2023-03-14T05:57:34;98258.89;;;8.89;71.28
12536;BME280;6334;48.696;2.114;2023-03-14T06:00:04;98263.28;;;8.57;72.80
12536;BME280;6334;48.696;2.114;2023-03-14T06:02:35;98276.55;;;8.85;71.11
12536;BME280;6334;48.696;2.114;2023-03-14T06:05:06;98286.72;;;8.86;71.95
12536;BME280;6334;48.696;2.114;2023-03-14T06:07:36;98296.16;;;8.73;71.78
12536;BME280;6334;48.696;2.114;2023-03-14T06:10:07;98307.23;;;8.56;72.24
12536;BME280;6334;48.696;2.114;2023-03-14T06:12:37;98309.46;;;8.40;72.42
12536;BME280;6334;48.696;2.114;2023-03-14T06:15:08;98314.34;;;8.59;71.20
12536;BME280;6334;48.696;2.114;2023-03-14T06:17:38;98333.71;;;8.35;72.13
12536;BME280;6334;48.696;2.114;2023-03-14T06:20:09;98329.94;;;8.17;72.68
12536;BME280;6334;48.696;2.114;2023-03-14T06:22:39;98342.55;;;8.36;68.55
12536;BME280;6334;48.696;2.114;2023-03-14T06:25:09;98358.73;;;8.35;69.79
12536;BME280;6334;48.696;2.114;2023-03-14T06:27:40;98363.19;;;8.30;70.83
12536;BME280;6334;48.696;2.114;2023-03-14T06:30:10;98379.23;;;7.99;69.58
12536;BME280;6334;48.696;2.114;2023-03-14T06:32:41;98385.84;;;8.31;68.79
12536;BME280;6334;48.696;2.114;2023-03-14T06:35:11;98396.64;;;8.59;71.02
12536;BME280;6334;48.696;2.114;2023-03-14T06:37:42;98397.69;;;8.17;71.29
12536;BME280;6334;48.696;2.114;2023-03-14T06:40:12;98410.09;;;8.27;68.77
12536;BME280;6334;48.696;2.114;2023-03-14T06:42:43;98410.44;;;8.15;69.53
12536;BME280;6334;48.696;2.114;2023-03-14T06:45:13;98417.09;;;7.95;69.44
12536;BME280;6334;48.696;2.114;2023-03-14T06:47:44;98435.73;;;9.02;68.78
12536;BME280;6334;48.696;2.114;2023-03-14T06:50:14;98415.69;;;8.19;70.22
12536;BME280;6334;48.696;2.114;2023-03-14T06:52:44;98443.92;;;8.50;68.44
12536;BME280;6334;48.696;2.114;2023-03-14T06:55:15;98446.91;;;8.11;69.17
12536;BME280;6334;48.696;2.114;2023-03-14T06:57:45;98464.41;;;8.52;68.48
12536;BME280;6334;48.696;2.114;2023-03-14T07:00:16;98465.62;;;8.68;68.83
12536;BME280;6334;48.696;2.114;2023-03-14T07:02:46;98484.64;;;8.09;66.59
12536;BME280;6334;48.696;2.114;2023-03-14T07:05:17;98469.72;;;8.34;67.18
12536;BME280;6334;48.696;2.114;2023-03-14T07:07:47;98486.16;;;8.48;66.94
12536;BME280;6334;48.696;2.114;2023-03-14T07:10:18;98487.81;;;7.99;67.62
12536;BME280;6334;48.696;2.114;2023-03-14T07:12:48;98495.84;;;8.05;66.97
12536;BME280;6334;48.696;2.114;2023-03-14T07:15:19;98510.39;;;7.97;67.42
12536;BME280;6334;48.696;2.114;2023-03-14T07:17:49;98529.02;;;8.19;66.48
12536;BME280;6334;48.696;2.114;2023-03-14T07:20:19;98538.45;;;7.94;66.14
12536;BME280;6334;48.696;2.114;2023-03-14T07:22:50;98549.50;;;8.06;68.56
12536;BME280;6334;48.696;2.114;2023-03-14T07:25:20;98553.94;;;8.10;67.32
12536;BME280;6334;48.696;2.114;2023-03-14T07:27:51;98564.91;;;8.31;67.19
12536;BME280;6334;48.696;2.114;2023-03-14T07:30:22;98574.23;;;8.26;67.24
12536;BME280;6334;48.696;2.114;2023-03-14T07:32:53;98575.29;;;8.36;67.78
12536;BME280;6334;48.696;2.114;2023-03-14T07:35:23;98585.02;;;8.32;67.62
12536;BME280;6334;48.696;2.114;2023-03-14T07:37:54;98584.95;;;8.18;67.35
12536;BME280;6334;48.696;2.114;2023-03-14T07:40:24;98597.08;;;8.34;66.77
12536;BME280;6334;48.696;2.114;2023-03-14T07:42:55;98602.44;;;8.18;65.44
12536;BME280;6334;48.696;2.114;2023-03-14T07:45:25;98614.27;;;8.46;66.88
12536;BME280;6334;48.696;2.114;2023-03-14T07:47:56;98617.36;;;8.37;66.83
12536;BME280;6334;48.696;2.114;2023-03-14T07:50:26;98612.23;;;8.17;67.45
12536;BME280;6334;48.696;2.114;2023-03-14T07:52:57;98633.67;;;8.38;66.25
12536;BME280;6334;48.696;2.114;2023-03-14T07:55:27;98633.88;;;8.56;67.48
12536;BME280;6334;48.696;2.114;2023-03-14T07:57:57;98640.61;;;8.56;66.16
12536;BME280;6334;48.696;2.114;2023-03-14T08:00:28;98645.39;;;8.47;66.68
12536;BME280;6334;48.696;2.114;2023-03-14T08:02:58;98646.79;;;9.03;65.48
12536;BME280;6334;48.696;2.114;2023-03-14T08:05:29;98653.58;;;8.92;66.84
12536;BME280;6334;48.696;2.114;2023-03-14T08:07:59;98662.86;;;8.45;68.05
12536;BME280;6334;48.696;2.114;2023-03-14T08:10:30;98668.51;;;8.73;66.13
12536;BME280;6334;48.696;2.114;2023-03-14T08:13:00;98670.62;;;8.38;68.48
12536;BME280;6334;48.696;2.114;2023-03-14T08:15:31;98676.03;;;8.68;67.24
12536;BME280;6334;48.696;2.114;2023-03-14T08:18:01;98676.66;;;8.69;66.61
12536;BME280;6334;48.696;2.114;2023-03-14T08:20:32;98690.15;;;9.05;65.88
12536;BME280;6334;48.696;2.114;2023-03-14T08:23:02;98699.31;;;8.61;67.60
12536;BME280;6334;48.696;2.114;2023-03-14T08:25:32;98700.66;;;8.89;67.63
12536;BME280;6334;48.696;2.114;2023-03-14T08:28:03;98706.95;;;9.24;67.19
12536;BME280;6334;48.696;2.114;2023-03-14T08:30:33;98715.47;;;9.34;67.04
12536;BME280;6334;48.696;2.114;2023-03-14T08:33:04;98716.59;;;8.80;67.10
12536;BME280;6334;48.696;2.114;2023-03-14T08:35:34;98724.70;;;9.07;66.83
12536;BME280;6334;48.696;2.114;2023-03-14T08:38:05;98719.35;;;8.98;67.41
12536;BME280;6334;48.696;2.114;2023-03-14T08:40:35;98724.94;;;9.34;65.68
12536;BME280;6334;48.696;2.114;2023-03-14T08:43:06;98727.31;;;9.26;67.06
12536;BME280;6334;48.696;2.114;2023-03-14T08:45:36;98729.45;;;9.70;66.25
12536;BME280;6334;48.696;2.114;2023-03-14T08:48:07;98726.11;;;9.28;65.76
12536;BME280;6334;48.696;2.114;2023-03-14T08:50:38;98722.75;;;9.34;66.21
12536;BME280;6334;48.696;2.114;2023-03-14T08:53:08;98731.23;;;9.34;64.90
12536;BME280;6334;48.696;2.114;2023-03-14T08:55:39;98724.60;;;9.22;66.01
12536;BME280;6334;48.696;2.114;2023-03-14T08:58:09;98737.95;;;9.37;64.06
12536;BME280;6334;48.696;2.114;2023-03-14T09:00:40;98744.86;;;9.57;63.72
12536;BME280;6334;48.696;2.114;2023-03-14T09:03:11;98751.23;;;9.43;64.24
12536;BME280;6334;48.696;2.114;2023-03-14T09:05:42;98762.84;;;9.40;65.33
12536;BME280;6334;48.696;2.114;2023-03-14T09:08:12;98769.91;;;9.47;65.42
12536;BME280;6334;48.696;2.114;2023-03-14T09:10:43;98761.94;;;9.52;64.16
12536;BME280;6334;48.696;2.114;2023-03-14T09:13:13;98763.04;;;9.42;63.72
12536;BME280;6334;48.696;2.114;2023-03-14T09:15:44;98771.36;;;9.30;63.93
12536;BME280;6334;48.696;2.114;2023-03-14T09:18:14;98775.86;;;9.56;63.56
12536;BME280;6334;48.696;2.114;2023-03-14T09:20:45;98777.23;;;9.46;63.94
12536;BME280;6334;48.696;2.114;2023-03-14T09:23:15;98787.88;;;9.44;64.06
12536;BME280;6334;48.696;2.114;2023-03-14T09:25:46;98784.96;;;9.14;63.00
12536;BME280;6334;48.696;2.114;2023-03-14T09:28:16;98798.08;;;8.92;62.78
12536;BME280;6334;48.696;2.114;2023-03-14T09:30:47;98822.63;;;8.98;64.25
12536;BME280;6334;48.696;2.114;2023-03-14T09:33:17;98828.22;;;9.06;65.06
12536;BME280;6334;48.696;2.114;2023-03-14T09:35:47;98823.55;;;9.08;65.80
12536;BME280;6334;48.696;2.114;2023-03-14T09:38:18;98836.36;;;9.42;65.56
12536;BME280;6334;48.696;2.114;2023-03-14T09:40:48;98832.98;;;9.08;64.84
12536;BME280;6334;48.696;2.114;2023-03-14T09:43:19;98869.12;;;8.90;64.85
12536;BME280;6334;48.696;2.114;2023-03-14T09:45:50;98851.36;;;8.96;64.26
12536;BME280;6334;48.696;2.114;2023-03-14T09:48:22;98861.84;;;9.29;63.90
12536;BME280;6334;48.696;2.114;2023-03-14T09:50:53;98856.31;;;9.50;63.09
12536;BME280;6334;48.696;2.114;2023-03-14T09:53:44;98882.22;;;9.27;63.59
12536;BME280;6334;48.696;2.114;2023-03-14T09:55:52;98877.08;;;9.36;62.47
12536;BME280;6334;48.696;2.114;2023-03-14T09:58:23;98886.30;;;9.58;62.12
12536;BME280;6334;48.696;2.114;2023-03-14T10:00:54;98888.11;;;9.99;59.03
12536;BME280;6334;48.696;2.114;2023-03-14T10:03:33;98898.97;;;9.97;59.97
12536;BME280;6334;48.696;2.114;2023-03-14T10:06:00;98895.42;;;10.13;59.47
12536;BME280;6334;48.696;2.114;2023-03-14T10:08:30;98909.28;;;9.84;59.77
12536;BME280;6334;48.696;2.114;2023-03-14T10:11:01;98922.58;;;9.62;59.29
12536;BME280;6334;48.696;2.114;2023-03-14T10:13:31;98939.64;;;9.40;63.15
12536;BME280;6334;48.696;2.114;2023-03-14T10:16:02;98926.52;;;9.03;62.90
12536;BME280;6334;48.696;2.114;2023-03-14T10:18:35;98931.95;;;8.87;66.37
12536;BME280;6334;48.696;2.114;2023-03-14T10:23:36;98940.61;;;8.93;63.54
12536;BME280;6334;48.696;2.114;2023-03-14T10:26:16;98939.45;;;9.10;62.27
12536;BME280;6334;48.696;2.114;2023-03-14T10:28:46;98962.32;;;8.83;61.34
12536;BME280;6334;48.696;2.114;2023-03-14T10:31:17;98956.70;;;9.38;61.00
12536;BME280;6334;48.696;2.114;2023-03-14T10:34:00;98962.96;;;9.30;60.18
12536;BME280;6334;48.696;2.114;2023-03-14T10:36:29;98957.43;;;9.12;57.77
12536;BME280;6334;48.696;2.114;2023-03-14T10:42:10;98980.39;;;9.78;58.47
12536;BME280;6334;48.696;2.114;2023-03-14T10:44:27;98960.98;;;9.84;58.22
12536;BME280;6334;48.696;2.114;2023-03-14T10:47:01;98995.34;;;9.95;57.27
12536;BME280;6334;48.696;2.114;2023-03-14T10:49:32;98978.16;;;9.97;56.56
12536;BME280;6334;48.696;2.114;2023-03-14T10:54:46;99004.24;;;9.70;54.96
12536;BME280;6334;48.696;2.114;2023-03-14T10:57:13;99003.09;;;9.93;54.95
12536;BME280;6334;48.696;2.114;2023-03-14T10:59:44;99028.73;;;10.14;52.36
12536;BME280;6334;48.696;2.114;2023-03-14T11:02:24;99012.28;;;9.69;54.88
12536;BME280;6334;48.696;2.114;2023-03-14T11:07:44;99017.69;;;9.82;52.29
12536;BME280;6334;48.696;2.114;2023-03-14T11:10:20;99019.16;;;9.86;51.89
12536;BME280;6334;48.696;2.114;2023-03-14T11:15:57;99034.51;;;10.02;50.41
12536;BME280;6334;48.696;2.114;2023-03-14T11:18:40;99033.25;;;10.56;51.90
12536;BME280;6334;48.696;2.114;2023-03-14T11:21:17;99039.59;;;10.21;49.54
12536;BME280;6334;48.696;2.114;2023-03-14T11:24:18;99031.74;;;10.83;49.61
12536;BME280;6334;48.696;2.114;2023-03-14T11:29:56;99045.67;;;10.40;47.78
12536;BME280;6334;48.696;2.114;2023-03-14T11:35:24;99039.33;;;11.05;48.60
12536;BME280;6334;48.696;2.114;2023-03-14T11:40:26;99030.06;;;10.80;45.78
12536;BME280;6334;48.696;2.114;2023-03-14T11:43:13;99040.55;;;10.89;46.56
12536;BME280;6334;48.696;2.114;2023-03-14T11:45:42;99055.94;;;10.63;48.18
12536;BME280;6334;48.696;2.114;2023-03-14T11:48:23;99057.13;;;10.48;47.09
12536;BME280;6334;48.696;2.114;2023-03-14T11:50:52;99063.94;;;10.47;45.79
12536;BME280;6334;48.696;2.114;2023-03-14T11:56:11;99061.48;;;10.39;45.87
12536;BME280;6334;48.696;2.114;2023-03-14T11:58:40;99062.05;;;10.41;45.34
12536;BME280;6334;48.696;2.114;2023-03-14T12:01:10;99064.01;;;10.54;45.65
12536;BME280;6334;48.696;2.114;2023-03-14T12:03:50;99071.30;;;10.73;47.09
12536;BME280;6334;48.696;2.114;2023-03-14T12:06:20;99066.28;;;10.83;48.08
12536;BME280;6334;48.696;2.114;2023-03-14T12:08:52;99064.42;;;10.92;46.39
12536;BME280;6334;48.696;2.114;2023-03-14T12:11:36;99080.05;;;11.02;47.15
12536;BME280;6334;48.696;2.114;2023-03-14T12:14:15;99086.63;;;10.76;46.40
12536;BME280;6334;48.696;2.114;2023-03-14T12:16:38;99085.59;;;11.01;46.10
12536;BME280;6334;48.696;2.114;2023-03-14T12:19:14;99086.28;;;11.31;45.70
12536;BME280;6334;48.696;2.114;2023-03-14T12:21:48;99091.45;;;11.05;47.47
12536;BME280;6334;48.696;2.114;2023-03-14T12:24:24;99099.32;;;10.73;47.67
12536;BME280;6334;48.696;2.114;2023-03-14T12:26:54;99092.23;;;10.80;45.72
12536;BME280;6334;48.696;2.114;2023-03-14T12:29:24;99085.31;;;10.69;48.37
12536;BME280;6334;48.696;2.114;2023-03-14T12:34:39;99115.42;;;10.75;46.45
12536;BME280;6334;48.696;2.114;2023-03-14T12:37:29;99102.55;;;10.57;46.93
12536;BME280;6334;48.696;2.114;2023-03-14T12:40:17;99114.84;;;10.75;49.59
12536;BME280;6334;48.696;2.114;2023-03-14T12:43:00;99119.33;;;10.72;49.60
12536;BME280;6334;48.696;2.114;2023-03-14T12:51:02;99119.78;;;10.43;51.45
12536;BME280;6334;48.696;2.114;2023-03-14T12:56:50;99140.11;;;10.20;54.83
12536;BME280;6334;48.696;2.114;2023-03-14T13:07:13;99155.49;;;9.51;58.18
12536;BME280;6334;48.696;2.114;2023-03-14T13:10:02;99160.97;;;9.32;60.43
12536;BME280;6334;48.696;2.114;2023-03-14T13:12:41;99154.49;;;9.85;60.46
12536;BME280;6334;48.696;2.114;2023-03-14T13:15:00;99150.45;;;9.73;59.67
12536;BME280;6334;48.696;2.114;2023-03-14T13:17:33;99141.73;;;9.77;60.22
12536;BME280;6334;48.696;2.114;2023-03-14T13:20:19;99141.24;;;10.04;59.26
12536;BME280;6334;48.696;2.114;2023-03-14T13:22:47;99133.83;;;9.98;59.23
12536;BME280;6334;48.696;2.114;2023-03-14T13:25:17;99132.44;;;9.64;58.56
12536;BME280;6334;48.696;2.114;2023-03-14T13:27:47;99138.98;;;10.30;57.38
12536;BME280;6334;48.696;2.114;2023-03-14T13:30:25;99138.53;;;10.66;56.17
12536;BME280;6334;48.696;2.114;2023-03-14T13:32:54;99134.25;;;10.71;57.22
12536;BME280;6334;48.696;2.114;2023-03-14T13:35:27;99133.66;;;10.95;57.64
12536;BME280;6334;48.696;2.114;2023-03-14T13:38:00;99112.16;;;10.39;54.30
12536;BME280;6334;48.696;2.114;2023-03-14T13:40:31;99138.52;;;11.15;54.25
12536;BME280;6334;48.696;2.114;2023-03-14T13:43:17;99139.58;;;10.68;53.94
12536;BME280;6334;48.696;2.114;2023-03-14T13:45:49;99158.28;;;11.02;55.36
12536;BME280;6334;48.696;2.114;2023-03-14T13:48:18;99165.07;;;9.84;59.97
12536;BME280;6334;48.696;2.114;2023-03-14T13:51:40;99189.02;;;10.00;60.89
12536;BME280;6334;48.696;2.114;2023-03-14T13:53:26;99197.66;;;9.68;62.35
12536;BME280;6334;48.696;2.114;2023-03-14T13:55:55;99195.22;;;9.64;63.74
12536;BME280;6334;48.696;2.114;2023-03-14T13:58:27;99202.64;;;10.01;62.41
12536;BME280;6334;48.696;2.114;2023-03-14T14:01:06;99202.41;;;9.70;63.09
12536;BME280;6334;48.696;2.114;2023-03-14T14:03:34;99212.95;;;9.48;64.18
12536;BME280;6334;48.696;2.114;2023-03-14T14:06:03;99216.77;;;9.30;64.46
12536;BME280;6334;48.696;2.114;2023-03-14T14:08:33;99231.08;;;9.29;64.41
12536;BME280;6334;48.696;2.114;2023-03-14T14:11:04;99253.36;;;8.83;67.45
12536;BME280;6334;48.696;2.114;2023-03-14T14:13:34;99247.64;;;8.62;70.92
12536;BME280;6334;48.696;2.114;2023-03-14T14:16:05;99247.88;;;8.49;72.54
12536;BME280;6334;48.696;2.114;2023-03-14T14:18:35;99247.94;;;9.32;70.89
12536;BME280;6334;48.696;2.114;2023-03-14T14:21:06;99227.95;;;8.84;70.77
12536;BME280;6334;48.696;2.114;2023-03-14T14:23:36;99231.33;;;8.71;70.15
12536;BME280;6334;48.696;2.114;2023-03-14T14:26:07;99230.59;;;8.60;70.36